Meteo Giornale » Osservazioni meteo Brasile » Cuiaba Aeroporto
ore: 14:00 - Osservazioni Meteo Cuiaba Aeroporto
Lat. 15° 39' S Lon. 56° 6' W Alt. 187 metri s.l.m.
41 °C
Nuvoloso
Temp. 24 Ore
25 °C
41 °C
Ovest/Nord-Ovest
25.9 Km/h
Dew point 18 °C
Umidità 26 %
Visibilità 10 Km
Il sole sorge alle ore 05:50
Il sole tramonta alle ore 17:38
| Data e Ora | Cielo e Fenomeni | T °C | DP °C | Um. % | Pres. hPa | Vis. km | Vento km/h | |
|---|---|---|---|---|---|---|---|---|
| Oggi h: 14:00 | Nuvoloso | 41 | 18 | 26 | 1007 | 10 | O/NO 25.9 | |
| Oggi h: 13:00 | Nuvoloso | 40 | 18 | 27 | 1008 | 10 | NO 22.2 | |
| Oggi h: 12:00 | Sereno | 39 | 19 | 31 | 1009 | 10 | NO 25.9 | |
| Oggi h: 11:00 | Sereno | 38 | 19 | 33 | 1010 | 10 | NO 27.8 | |
| Oggi h: 10:00 | Sereno | 37 | 19 | 35 | 1011 | 10 | NO 14.8 | |
| Oggi h: 09:00 | Sereno | 35 | 19 | 39 | 1011 | 10 | NO 13 | |
| Oggi h: 08:00 | Sereno | 32 | 20 | 49 | 1011 | 10 | N/NO 9.3 | |
| Oggi h: 07:00 | Sereno | 28 | 20 | 61 | 1010 | 10 | N 0 | |
| Oggi h: 06:00 | Sereno | 25 | 19 | 69 | 1009 | 10 | N 0 | |
| Oggi h: 05:00 | Sereno | 26 | 17 | 57 | 1009 | 10 | N 1.8 | |
| Oggi h: 04:00 | Sereno | 27 | 18 | 57 | 1008 | 10 | O/NO 7.4 | |
| Oggi h: 03:00 | Sereno | 27 | 17 | 54 | 1008 | 10 | NO 7.4 | |
| Oggi h: 02:00 | Sereno | 27 | 17 | 54 | 1008 | 10 | NO 11.1 | |
| Oggi h: 01:00 | Sereno | 28 | 17 | 51 | 1008 | 10 | NO 11.1 | |
| Oggi h: 00:00 | Sereno | 28 | 17 | 51 | 1009 | 10 | NO 9.3 | |
| Ieri h: 23:00 | Sereno | 30 | 17 | 45 | 1009 | 10 | N/NO 7.4 | |
| Ieri h: 22:00 | Sereno | 30 | 18 | 48 | 1008 | 10 | O/NO 9.3 | |
| Ieri h: 21:00 | Sereno | 31 | 17 | 43 | 1008 | 10 | N/NO 7.4 | |
| Ieri h: 20:00 | Sereno | 31 | 19 | 48 | 1008 | 10 | N 7.4 | |
| Ieri h: 19:00 | Sereno | 34 | 17 | 36 | 1007 | 10 | N 5.5 | |
| Ieri h: 18:00 | Sereno | 35 | 17 | 34 | 1007 | 10 | NO 9.3 | |
| Ieri h: 17:00 | Sereno | 39 | 15 | 24 | 1007 | 10 | N 5.5 | |
| Ieri h: 16:00 | Poco Nuvoloso | 40 | 14 | 21 | 1007 | 10 | O/NO 9.3 | |
| Ieri h: 15:00 | Nuvoloso | 40 | 16 | 24 | 1007 | 10 | S 18.5 | |



